createdAt,value
2018-05-18T00:01:32.625Z,13.50
2018-05-18T00:04:02.184Z,13.50
2018-05-18T00:06:30.473Z,13.50
2018-05-18T00:08:58.757Z,13.40
2018-05-18T00:11:27.073Z,13.40
2018-05-18T00:13:55.452Z,13.40
2018-05-18T00:16:23.755Z,13.20
2018-05-18T00:18:51.997Z,13.20
2018-05-18T00:21:20.389Z,13.20
2018-05-18T00:23:49.914Z,13.20
2018-05-18T00:26:18.240Z,13.20
2018-05-18T00:28:46.599Z,13.20
2018-05-18T00:31:15.676Z,13.10
2018-05-18T00:33:44.738Z,13.10
2018-05-18T00:36:12.996Z,13.10
2018-05-18T00:38:41.312Z,13.10
2018-05-18T00:41:09.564Z,13.10
2018-05-18T00:43:37.867Z,13.20
2018-05-18T00:46:06.165Z,13.20
2018-05-18T00:48:35.206Z,13.10
2018-05-18T00:51:03.521Z,13.10
2018-05-18T00:53:31.774Z,13.20
2018-05-18T00:56:00.070Z,13.10
2018-05-18T00:58:28.297Z,13.10
2018-05-18T01:00:56.620Z,13.00
2018-05-18T01:03:24.897Z,13.00
2018-05-18T01:05:53.250Z,13.10
2018-05-18T01:08:21.552Z,13.10
2018-05-18T01:10:49.847Z,13.00
2018-05-18T01:13:18.973Z,13.10
2018-05-18T01:15:47.323Z,13.10
2018-05-18T01:18:15.557Z,13.10
2018-05-18T01:20:43.817Z,13.10
2018-05-18T01:23:12.094Z,13.10
2018-05-18T01:25:43.321Z,13.00
2018-05-18T01:28:11.582Z,13.00
2018-05-18T01:30:39.855Z,13.00
2018-05-18T01:33:08.144Z,13.00
2018-05-18T01:35:36.413Z,13.10
2018-05-18T01:38:04.703Z,13.00
2018-05-18T01:40:33.120Z,13.00
2018-05-18T01:43:02.301Z,13.00
2018-05-18T01:45:30.696Z,12.90
2018-05-18T01:47:58.967Z,12.90
2018-05-18T01:50:27.228Z,12.90
2018-05-18T01:52:55.524Z,12.90
2018-05-18T01:55:23.774Z,13.00
2018-05-18T01:57:52.961Z,13.00
2018-05-18T02:00:22.194Z,12.90
2018-05-18T02:02:51.233Z,12.80
2018-05-18T02:05:20.256Z,12.80
2018-05-18T02:07:48.560Z,12.70
2018-05-18T02:10:16.831Z,12.70
2018-05-18T02:12:48.849Z,12.80
2018-05-18T02:15:17.892Z,12.90
2018-05-18T02:17:47.259Z,12.90
2018-05-18T02:20:15.516Z,12.80
2018-05-18T02:22:43.760Z,12.70
2018-05-18T02:25:12.798Z,12.70
2018-05-18T02:27:41.076Z,12.70
2018-05-18T02:30:09.351Z,12.60
2018-05-18T02:32:37.660Z,12.60
2018-05-18T02:35:05.920Z,12.50
2018-05-18T02:37:34.340Z,12.50
2018-05-18T02:40:02.604Z,12.50
2018-05-18T02:42:30.871Z,12.50
2018-05-18T02:44:59.145Z,12.50
2018-05-18T02:47:27.448Z,12.50
2018-05-18T02:49:56.513Z,12.60
2018-05-18T02:52:25.792Z,12.50
2018-05-18T02:54:53.974Z,12.50
2018-05-18T02:57:22.236Z,12.50
2018-05-18T02:59:50.482Z,12.40
2018-05-18T03:02:19.431Z,12.40
2018-05-18T03:04:47.780Z,12.40
2018-05-18T03:07:16.036Z,12.50
2018-05-18T03:09:44.348Z,12.60
2018-05-18T03:12:12.618Z,12.60
2018-05-18T03:14:42.192Z,12.60
2018-05-18T03:17:11.212Z,12.60
2018-05-18T03:19:39.472Z,12.60
2018-05-18T03:22:07.774Z,12.60
2018-05-18T03:24:37.186Z,12.70
2018-05-18T03:27:05.462Z,12.70
2018-05-18T03:29:33.762Z,12.80
2018-05-18T03:32:02.053Z,12.80
2018-05-18T03:34:31.094Z,12.90
2018-05-18T03:36:59.365Z,12.90
2018-05-18T03:39:27.680Z,12.90
2018-05-18T03:41:55.958Z,12.90
2018-05-18T03:44:24.255Z,12.90
2018-05-18T03:46:53.317Z,13.00
2018-05-18T03:49:21.571Z,12.90
2018-05-18T03:51:49.882Z,13.00
2018-05-18T03:54:18.159Z,13.00
2018-05-18T03:56:47.173Z,13.00
2018-05-18T03:59:16.252Z,13.00
2018-05-18T04:01:57.110Z,13.10
2018-05-18T04:04:37.716Z,13.10
2018-05-18T04:07:18.700Z,13.20
2018-05-18T04:09:46.977Z,13.20
2018-05-18T04:12:15.214Z,13.30
2018-05-18T04:14:44.276Z,13.20
2018-05-18T04:17:12.566Z,13.20
2018-05-18T04:19:40.830Z,13.20
2018-05-18T04:22:09.125Z,13.20
2018-05-18T04:24:37.420Z,13.20
2018-05-18T04:27:06.510Z,13.30
2018-05-18T04:29:34.789Z,13.30
2018-05-18T04:32:03.881Z,13.40
2018-05-18T04:34:32.241Z,13.40
2018-05-18T04:37:00.499Z,13.40
2018-05-18T04:39:28.771Z,13.40
2018-05-18T04:41:58.316Z,13.40
2018-05-18T04:44:26.672Z,13.40
2018-05-18T04:46:54.952Z,13.30
2018-05-18T04:49:23.209Z,13.20
2018-05-18T04:51:51.916Z,13.10
2018-05-18T04:54:20.266Z,13.10
2018-05-18T04:56:49.534Z,13.10
2018-05-18T04:59:18.688Z,13.20
2018-05-18T05:01:46.992Z,13.20
2018-05-18T05:04:15.982Z,13.30
2018-05-18T05:06:45.058Z,13.30
2018-05-18T05:09:13.304Z,13.30
2018-05-18T05:11:42.757Z,13.40
2018-05-18T05:14:11.006Z,13.50
2018-05-18T05:16:39.287Z,13.50
2018-05-18T05:19:07.612Z,13.60
2018-05-18T05:21:35.842Z,13.80
2018-05-18T05:24:04.909Z,13.60
2018-05-18T05:26:33.202Z,13.60
2018-05-18T05:29:01.441Z,13.60
2018-05-18T05:31:29.734Z,13.80
2018-05-18T05:33:58.761Z,13.70
2018-05-18T05:36:27.878Z,13.70
2018-05-18T05:38:57.660Z,13.80
2018-05-18T05:41:26.974Z,13.80
2018-05-18T05:43:56.031Z,13.90
2018-05-18T05:46:24.384Z,13.90
2018-05-18T05:48:52.561Z,13.90
2018-05-18T05:51:20.868Z,14.10
2018-05-18T05:53:49.161Z,14.10
2018-05-18T05:56:18.301Z,13.90
2018-05-18T05:58:47.395Z,13.90
2018-05-18T06:01:15.738Z,13.90
2018-05-18T06:03:44.763Z,14.00
2018-05-18T06:06:13.113Z,14.00
2018-05-18T06:08:42.509Z,14.00
2018-05-18T06:11:10.772Z,13.90
2018-05-18T06:13:39.114Z,14.00
2018-05-18T06:16:07.427Z,14.20
2018-05-18T06:18:35.711Z,14.30
2018-05-18T06:21:04.717Z,14.40
2018-05-18T06:23:37.527Z,14.20
2018-05-18T06:26:05.823Z,14.20
2018-05-18T06:28:34.067Z,14.10
2018-05-18T06:31:02.373Z,14.10
2018-05-18T06:33:30.673Z,14.10
2018-05-18T06:35:58.997Z,14.10
2018-05-18T06:38:27.327Z,14.10
2018-05-18T06:40:55.572Z,14.20
2018-05-18T06:43:24.891Z,14.20
2018-05-18T06:45:53.145Z,14.20
2018-05-18T06:48:22.666Z,14.10
2018-05-18T06:50:50.960Z,14.00
2018-05-18T06:53:19.192Z,13.90
2018-05-18T06:55:47.513Z,14.00
2018-05-18T06:58:15.903Z,14.00
2018-05-18T07:00:44.146Z,14.10
2018-05-18T07:03:12.457Z,14.10
2018-05-18T07:05:40.823Z,14.20
2018-05-18T07:08:09.137Z,14.30
2018-05-18T07:10:38.212Z,14.30
2018-05-18T07:13:06.478Z,14.30
2018-05-18T07:15:34.775Z,14.40
2018-05-18T07:18:03.563Z,14.40
2018-05-18T07:20:31.836Z,14.40
2018-05-18T07:23:00.179Z,14.40
2018-05-18T07:25:30.314Z,14.40
2018-05-18T07:27:58.596Z,14.40
2018-05-18T07:30:28.371Z,14.50
2018-05-18T07:32:56.661Z,14.50
2018-05-18T07:35:24.933Z,14.60
2018-05-18T07:37:56.935Z,14.60
2018-05-18T07:40:25.190Z,14.60
2018-05-18T07:42:53.483Z,14.70
2018-05-18T07:45:22.705Z,14.90
2018-05-18T07:47:51.025Z,14.80
2018-05-18T07:50:19.330Z,14.80
2018-05-18T07:52:47.588Z,14.60
2018-05-18T07:55:15.887Z,14.50
2018-05-18T07:57:44.206Z,14.60
2018-05-18T08:00:12.518Z,14.70
2018-05-18T08:02:40.785Z,14.80
2018-05-18T08:05:09.191Z,14.90
2018-05-18T08:07:37.429Z,14.90
2018-05-18T08:10:05.747Z,15.00
2018-05-18T08:12:34.004Z,15.00
2018-05-18T08:15:02.414Z,14.90
2018-05-18T08:17:31.352Z,14.90
2018-05-18T08:19:59.674Z,14.90
2018-05-18T08:22:30.201Z,15.10
2018-05-18T08:24:59.263Z,15.20
2018-05-18T08:27:28.333Z,15.20
2018-05-18T08:29:56.626Z,15.50
2018-05-18T08:32:24.903Z,15.60
2018-05-18T08:34:53.146Z,15.70
2018-05-18T08:37:21.457Z,15.70
2018-05-18T08:39:49.730Z,15.80
2018-05-18T08:42:18.122Z,15.80
2018-05-18T08:44:46.400Z,15.80
2018-05-18T08:47:14.719Z,15.80
2018-05-18T08:49:43.807Z,15.70
2018-05-18T08:52:12.078Z,15.70
2018-05-18T08:54:40.927Z,15.50
2018-05-18T08:57:09.212Z,15.60
2018-05-18T08:59:38.278Z,15.50
2018-05-18T09:02:06.559Z,15.40
2018-05-18T09:04:34.907Z,15.50
2018-05-18T09:07:04.045Z,15.70
2018-05-18T09:09:36.168Z,15.70
2018-05-18T09:12:05.310Z,15.70
2018-05-18T09:14:33.589Z,15.80
2018-05-18T09:17:01.863Z,15.90
2018-05-18T09:19:30.195Z,16.00
2018-05-18T09:22:00.154Z,16.10
2018-05-18T09:24:28.562Z,16.00
2018-05-18T09:26:56.822Z,16.20
2018-05-18T09:29:25.136Z,16.10
2018-05-18T09:31:54.238Z,16.40
2018-05-18T09:34:23.255Z,16.40
2018-05-18T09:36:51.579Z,16.40
2018-05-18T09:39:20.560Z,16.50
2018-05-18T09:41:48.878Z,16.40
2018-05-18T09:44:17.918Z,16.40
2018-05-18T09:46:46.291Z,16.40
2018-05-18T09:49:14.579Z,16.50
2018-05-18T09:51:42.825Z,16.60
2018-05-18T09:54:11.158Z,16.60
2018-05-18T09:56:40.280Z,16.50
2018-05-18T09:59:09.420Z,16.30
2018-05-18T10:01:37.704Z,16.30
2018-05-18T10:04:07.157Z,16.10
2018-05-18T10:06:36.237Z,16.00
2018-05-18T10:09:06.608Z,16.10
2018-05-18T10:11:34.925Z,16.10
2018-05-18T10:14:03.972Z,16.10
2018-05-18T10:16:32.290Z,16.10
2018-05-18T10:19:00.566Z,16.10
2018-05-18T10:21:30.060Z,16.10
2018-05-18T10:23:58.284Z,16.10
2018-05-18T10:26:26.565Z,16.10
2018-05-18T10:28:54.879Z,16.00
2018-05-18T10:31:23.197Z,16.20
2018-05-18T10:33:52.240Z,16.40
2018-05-18T10:36:20.508Z,16.40
2018-05-18T10:38:48.820Z,16.30
2018-05-18T10:41:17.088Z,16.40
2018-05-18T10:43:45.379Z,16.30
2018-05-18T10:46:13.697Z,16.10
2018-05-18T10:48:42.774Z,16.00
2018-05-18T10:51:11.063Z,16.00
2018-05-18T10:53:39.316Z,16.00
2018-05-18T10:56:08.365Z,16.20
2018-05-18T10:58:37.027Z,16.20
2018-05-18T11:01:08.031Z,16.30
2018-05-18T11:03:36.333Z,16.20
2018-05-18T11:06:05.392Z,16.10
2018-05-18T11:08:33.675Z,16.10
2018-05-18T11:11:02.748Z,15.80
2018-05-18T11:13:31.026Z,15.80
2018-05-18T11:15:59.310Z,15.80
2018-05-18T11:18:27.663Z,15.80
2018-05-18T11:20:55.973Z,15.80
2018-05-18T11:23:24.324Z,15.80
2018-05-18T11:25:52.741Z,16.00
2018-05-18T11:28:21.806Z,15.90
2018-05-18T11:30:50.098Z,15.90
2018-05-18T11:33:18.362Z,16.00
2018-05-18T11:35:47.426Z,16.00
2018-05-18T11:38:15.680Z,16.00
2018-05-18T11:40:43.987Z,16.10
2018-05-18T11:43:12.300Z,16.20
2018-05-18T11:45:40.765Z,16.50
2018-05-18T11:48:09.911Z,16.40
2018-05-18T11:50:38.137Z,16.40
2018-05-18T11:53:06.417Z,16.30
2018-05-18T11:55:34.695Z,16.40
2018-05-18T11:58:03.002Z,16.30
2018-05-18T12:00:32.012Z,16.00
2018-05-18T12:03:00.310Z,16.00
2018-05-18T12:05:29.844Z,16.00
2018-05-18T12:07:58.089Z,15.90
2018-05-18T12:10:26.374Z,15.90
2018-05-18T12:12:54.777Z,15.70
2018-05-18T12:15:23.092Z,15.70
2018-05-18T12:17:51.377Z,15.90
2018-05-18T12:20:19.770Z,16.10
2018-05-18T12:22:47.949Z,16.10
2018-05-18T12:25:17.164Z,16.10
2018-05-18T12:27:45.441Z,16.00
2018-05-18T12:30:13.742Z,15.90
2018-05-18T12:32:43.522Z,15.90
2018-05-18T12:35:11.850Z,16.00
2018-05-18T12:37:40.190Z,16.10
2018-05-18T12:40:08.476Z,16.10
2018-05-18T12:42:36.863Z,16.00
2018-05-18T12:45:05.139Z,16.10
2018-05-18T12:47:34.536Z,16.00
2018-05-18T12:50:02.851Z,15.70
2018-05-18T12:52:31.133Z,15.70
2018-05-18T12:54:59.473Z,15.90
2018-05-18T12:57:27.805Z,16.10
2018-05-18T12:59:56.788Z,16.10
2018-05-18T13:02:25.151Z,16.10
2018-05-18T13:04:54.200Z,16.10
2018-05-18T13:07:22.595Z,16.00
2018-05-18T13:09:51.266Z,16.10
2018-05-18T13:12:19.552Z,16.20
2018-05-18T13:14:47.870Z,16.10
2018-05-18T13:17:16.139Z,16.10
2018-05-18T13:19:45.214Z,16.00
2018-05-18T13:22:13.447Z,16.00
2018-05-18T13:24:41.776Z,16.00
2018-05-18T13:27:10.051Z,15.90
2018-05-18T13:29:39.167Z,16.10
2018-05-18T13:32:07.470Z,16.10
2018-05-18T13:34:36.896Z,16.20
2018-05-18T13:37:05.156Z,16.20
2018-05-18T13:39:33.446Z,16.20
2018-05-18T13:42:01.718Z,16.30
2018-05-18T13:44:29.973Z,16.50
2018-05-18T13:46:58.378Z,16.60
2018-05-18T13:49:26.747Z,16.70
2018-05-18T13:51:54.998Z,16.90
2018-05-18T13:54:23.295Z,16.80
2018-05-18T13:56:51.570Z,16.80
2018-05-18T13:59:19.883Z,16.70
2018-05-18T14:01:48.156Z,16.70
2018-05-18T14:04:17.177Z,16.60
2018-05-18T14:06:45.973Z,16.60
2018-05-18T14:09:14.271Z,16.70
2018-05-18T14:11:42.549Z,17.00
2018-05-18T14:14:10.853Z,17.10
2018-05-18T14:16:40.012Z,17.00
2018-05-18T14:19:09.147Z,17.00
2018-05-18T14:21:37.458Z,17.00
2018-05-18T14:24:07.426Z,17.10
2018-05-18T14:26:35.723Z,17.10
2018-05-18T14:29:04.001Z,16.90
2018-05-18T14:31:32.348Z,16.70
2018-05-18T14:34:00.675Z,16.60
2018-05-18T14:36:29.742Z,16.90
2018-05-18T14:38:58.033Z,16.90
2018-05-18T14:41:26.312Z,17.10
2018-05-18T14:43:55.184Z,17.20
2018-05-18T14:46:23.436Z,17.20
2018-05-18T14:48:51.761Z,17.20
2018-05-18T14:51:20.811Z,17.30
2018-05-18T14:53:49.131Z,17.30
2018-05-18T14:56:18.163Z,17.10
2018-05-18T14:58:46.482Z,17.00
2018-05-18T15:01:14.786Z,17.00
2018-05-18T15:03:43.936Z,17.00
2018-05-18T15:06:12.190Z,17.00
2018-05-18T15:08:40.458Z,17.10
2018-05-18T15:11:08.971Z,17.00
2018-05-18T15:13:37.139Z,17.00
2018-05-18T15:16:05.440Z,16.90
2018-05-18T15:18:37.349Z,17.10
2018-05-18T15:21:05.675Z,16.90
2018-05-18T15:23:35.116Z,16.80
2018-05-18T15:26:04.141Z,16.50
2018-05-18T15:28:33.200Z,16.50
2018-05-18T15:31:03.395Z,16.40
2018-05-18T15:33:31.952Z,16.40
2018-05-18T15:36:00.227Z,16.50
2018-05-18T15:38:28.510Z,16.40
2018-05-18T15:40:56.788Z,16.30
2018-05-18T15:43:25.068Z,16.30
2018-05-18T15:45:53.373Z,16.30
2018-05-18T15:48:22.433Z,16.20
2018-05-18T15:50:50.741Z,16.10
2018-05-18T15:53:18.996Z,16.10
2018-05-18T15:55:47.297Z,16.10
2018-05-18T15:58:16.368Z,16.40
2018-05-18T16:00:44.757Z,16.40
2018-05-18T16:03:13.173Z,16.40
2018-05-18T16:05:41.451Z,16.50
2018-05-18T16:08:10.519Z,16.40
2018-05-18T16:10:38.811Z,16.40
2018-05-18T16:13:07.087Z,16.40
2018-05-18T16:15:35.405Z,16.30
2018-05-18T16:18:03.717Z,16.40
2018-05-18T16:20:32.009Z,16.50
2018-05-18T16:23:01.048Z,16.30
2018-05-18T16:25:29.341Z,16.30
2018-05-18T16:27:57.696Z,16.30
2018-05-18T16:30:25.917Z,16.20
2018-05-18T16:32:54.192Z,16.10
2018-05-18T16:35:22.469Z,16.10
2018-05-18T16:37:50.764Z,15.90
2018-05-18T16:40:19.871Z,15.70
2018-05-18T16:42:48.178Z,15.70
2018-05-18T16:45:16.481Z,15.70
2018-05-18T16:47:44.798Z,15.70
2018-05-18T16:50:13.857Z,15.70
2018-05-18T16:52:42.149Z,15.70
2018-05-18T16:55:10.502Z,15.70
2018-05-18T16:57:38.748Z,15.60
2018-05-18T17:00:07.859Z,15.50
2018-05-18T17:02:36.134Z,15.40
2018-05-18T17:05:04.501Z,15.30
2018-05-18T17:07:32.793Z,15.20
2018-05-18T17:10:01.114Z,15.20
2018-05-18T17:12:30.275Z,15.40
2018-05-18T17:14:59.557Z,15.40
2018-05-18T17:17:27.884Z,15.50
2018-05-18T17:19:56.145Z,15.40
2018-05-18T17:22:24.476Z,15.40
2018-05-18T17:24:52.757Z,15.40
2018-05-18T17:27:21.049Z,15.20
2018-05-18T17:29:49.315Z,15.10
2018-05-18T17:32:17.611Z,15.10
2018-05-18T17:34:45.930Z,15.20
2018-05-18T17:37:15.105Z,15.40
2018-05-18T17:39:43.385Z,15.40
2018-05-18T17:42:11.768Z,15.40
2018-05-18T17:44:40.034Z,15.30
2018-05-18T17:47:08.302Z,15.30
2018-05-18T17:49:36.610Z,15.20
2018-05-18T17:52:06.457Z,15.00
2018-05-18T17:54:38.429Z,15.00
2018-05-18T17:57:07.842Z,15.00
2018-05-18T17:59:36.163Z,15.00
2018-05-18T18:02:05.329Z,15.00
2018-05-18T18:04:33.679Z,14.90
2018-05-18T18:07:01.978Z,15.00
2018-05-18T18:09:30.363Z,14.80
2018-05-18T18:11:58.655Z,14.90
2018-05-18T18:14:28.858Z,14.90
2018-05-18T18:16:58.154Z,14.80
2018-05-18T18:19:26.414Z,14.80
2018-05-18T18:21:54.734Z,14.80
2018-05-18T18:24:23.890Z,14.70
2018-05-18T18:26:52.229Z,14.60
2018-05-18T18:29:21.428Z,14.30
2018-05-18T18:31:49.699Z,14.30
2018-05-18T18:34:17.969Z,14.10
2018-05-18T18:36:47.047Z,13.80
2018-05-18T18:39:15.337Z,13.80
2018-05-18T18:41:44.416Z,13.60
2018-05-18T18:44:12.740Z,13.50
2018-05-18T18:46:41.143Z,13.50
2018-05-18T18:49:09.452Z,13.50
2018-05-18T18:51:37.755Z,13.40
2018-05-18T18:54:06.058Z,13.30
2018-05-18T18:56:34.365Z,13.10
2018-05-18T18:59:03.453Z,13.00
2018-05-18T19:01:31.798Z,12.80
2018-05-18T19:04:00.058Z,12.70
2018-05-18T19:06:28.353Z,12.60
2018-05-18T19:08:57.912Z,12.60
2018-05-18T19:11:26.279Z,12.50
2018-05-18T19:13:54.581Z,12.40
2018-05-18T19:16:22.871Z,12.30
2018-05-18T19:18:51.176Z,12.30
2018-05-18T19:21:19.459Z,12.20
2018-05-18T19:23:48.670Z,12.10
2018-05-18T19:26:16.970Z,12.00
2018-05-18T19:28:45.336Z,11.90
2018-05-18T19:31:13.655Z,11.90
2018-05-18T19:33:41.924Z,11.80
2018-05-18T19:36:10.209Z,11.80
2018-05-18T19:38:38.489Z,11.70
2018-05-18T19:41:06.810Z,11.60
2018-05-18T19:43:35.076Z,11.60
2018-05-18T19:46:03.391Z,11.60
2018-05-18T19:48:32.556Z,11.40
2018-05-18T19:51:00.861Z,11.40
2018-05-18T19:53:31.267Z,11.40
2018-05-18T19:55:59.668Z,11.30
2018-05-18T19:58:29.148Z,11.30
2018-05-18T20:01:00.863Z,11.20
2018-05-18T20:03:29.366Z,11.10
2018-05-18T20:05:57.565Z,11.10
2018-05-18T20:08:25.897Z,11.00
2018-05-18T20:10:54.152Z,10.90
2018-05-18T20:13:22.483Z,10.80
2018-05-18T20:15:50.776Z,10.70
2018-05-18T20:18:19.227Z,10.70
2018-05-18T20:20:47.437Z,10.60
2018-05-18T20:23:16.525Z,10.50
2018-05-18T20:25:45.199Z,10.50
2018-05-18T20:28:13.520Z,10.50
2018-05-18T20:30:41.815Z,10.40
2018-05-18T20:33:10.115Z,10.40
2018-05-18T20:35:38.426Z,10.30
2018-05-18T20:38:07.527Z,10.20
2018-05-18T20:40:35.800Z,10.20
2018-05-18T20:43:04.911Z,10.20
2018-05-18T20:45:33.161Z,10.10
2018-05-18T20:48:02.083Z,10.10
2018-05-18T20:50:30.421Z,10.10
2018-05-18T20:52:58.706Z,10.00
2018-05-18T20:55:27.627Z,10.00
2018-05-18T20:57:55.937Z,10.00
2018-05-18T21:00:24.221Z,9.90
2018-05-18T21:02:52.536Z,9.90
2018-05-18T21:05:21.558Z,9.90
2018-05-18T21:07:49.880Z,9.90
2018-05-18T21:10:18.172Z,9.90
2018-05-18T21:12:46.460Z,9.80
2018-05-18T21:15:15.498Z,9.80
2018-05-18T21:17:43.791Z,9.80
2018-05-18T21:20:12.878Z,9.80
2018-05-18T21:22:41.165Z,9.80
2018-05-18T21:25:10.376Z,9.70
2018-05-18T21:27:38.670Z,9.70
2018-05-18T21:30:06.985Z,9.80
2018-05-18T21:32:35.261Z,9.80
2018-05-18T21:35:03.509Z,9.90
2018-05-18T21:37:32.560Z,10.10
2018-05-18T21:40:00.819Z,10.10
2018-05-18T21:42:29.112Z,10.20
2018-05-18T21:44:57.388Z,10.40
2018-05-18T21:47:25.683Z,10.50
2018-05-18T21:49:55.189Z,10.60
2018-05-18T21:52:24.601Z,10.70
2018-05-18T21:54:52.850Z,10.70
2018-05-18T21:57:21.136Z,10.80
2018-05-18T21:59:49.518Z,10.90
2018-05-18T22:02:17.820Z,11.00
2018-05-18T22:04:46.862Z,11.20
2018-05-18T22:07:15.174Z,11.10
2018-05-18T22:09:44.985Z,11.20
2018-05-18T22:12:13.271Z,11.20
2018-05-18T22:14:41.565Z,11.30
2018-05-18T22:17:10.615Z,11.30
2018-05-18T22:19:38.902Z,11.30
2018-05-18T22:22:07.286Z,11.30
2018-05-18T22:24:35.547Z,11.40
2018-05-18T22:27:03.839Z,11.40
2018-05-18T22:29:32.214Z,11.40
2018-05-18T22:32:00.472Z,11.40
2018-05-18T22:34:28.844Z,11.30
2018-05-18T22:36:57.117Z,11.30
2018-05-18T22:39:25.416Z,11.30
2018-05-18T22:41:53.710Z,11.30
2018-05-18T22:44:22.077Z,11.40
2018-05-18T22:46:50.350Z,11.40
2018-05-18T22:49:18.650Z,11.40
2018-05-18T22:51:46.996Z,11.40
2018-05-18T22:54:15.690Z,11.40
2018-05-18T22:56:44.005Z,11.40
2018-05-18T22:59:13.043Z,11.50
2018-05-18T23:01:41.286Z,11.50
2018-05-18T23:04:09.600Z,11.60
2018-05-18T23:06:37.870Z,11.60
2018-05-18T23:09:06.147Z,11.60
2018-05-18T23:11:34.505Z,11.60
2018-05-18T23:14:03.564Z,11.60
2018-05-18T23:16:32.604Z,11.60
2018-05-18T23:19:00.921Z,11.60
2018-05-18T23:21:31.168Z,11.60
2018-05-18T23:24:01.361Z,11.60
2018-05-18T23:26:31.345Z,11.60
2018-05-18T23:28:59.594Z,11.60
2018-05-18T23:31:29.142Z,11.60
2018-05-18T23:33:58.229Z,11.60
2018-05-18T23:36:27.439Z,11.50
2018-05-18T23:38:55.725Z,11.50
2018-05-18T23:41:24.014Z,11.50
2018-05-18T23:43:53.037Z,11.50
2018-05-18T23:46:21.341Z,11.40
2018-05-18T23:48:50.794Z,11.50
2018-05-18T23:51:19.060Z,11.50
2018-05-18T23:53:48.085Z,11.50
2018-05-18T23:56:16.376Z,11.50
2018-05-18T23:58:44.652Z,11.50
